LRI582 KPOU-K5B2
Flight info
| Callsign | LRI582 |
|---|---|
| Flight time | 0h 43m |
| Altitude | 11000 |
| Route | DUCHS8 IGN V157 ALB |
| Aircraft | BE9L/L-SDFG/C |
Departure
| Time | 2026-05-07 15:27 |
|---|---|
| Airport | Dutchess County Airport (KPOU) |
Arrival
| Time | 2026-05-07 16:10 |
|---|---|
| Airport | Saratoga County Airport (K5B2) |
| Time | Latitude | Longitude | Altitude | Speed | Heading |
|---|---|---|---|---|---|
| 2026-05-07 15:01 | 41.62442 | -73.88353 | 149 ft | 0 kts | 140° |
| 2026-05-07 15:23 | 41.62441 | -73.88352 | 149 ft | 2 kts | 152° |
| 2026-05-07 15:23 | 41.62451 | -73.88387 | 149 ft | 4 kts | 223° |
| 2026-05-07 15:24 | 41.62451 | -73.88467 | 147 ft | 14 kts | 298° |
| 2026-05-07 15:24 | 41.62451 | -73.88575 | 145 ft | 18 kts | 229° |
| 2026-05-07 15:24 | 41.62354 | -73.88732 | 141 ft | 23 kts | 229° |
| 2026-05-07 15:24 | 41.62283 | -73.88918 | 131 ft | 21 kts | 244° |
| 2026-05-07 15:25 | 41.62210 | -73.89075 | 120 ft | 19 kts | 235° |
| 2026-05-07 15:25 | 41.62206 | -73.89170 | 114 ft | 5 kts | 355° |
| 2026-05-07 15:25 | 41.62226 | -73.89146 | 116 ft | 0 kts | 52° |
| 2026-05-07 15:26 | 41.62234 | -73.89133 | 117 ft | 8 kts | 52° |
| 2026-05-07 15:26 | 41.62391 | -73.88889 | 135 ft | 73 kts | 48° |
| 2026-05-07 15:26 | 41.62843 | -73.88142 | 206 ft | 119 kts | 49° |
| 2026-05-07 15:27 | 41.63312 | -73.87244 | 701 ft | 118 kts | 52° |
| 2026-05-07 15:27 | 41.63790 | -73.86383 | 1276 ft | 117 kts | 43° |
| 2026-05-07 15:27 | 41.64321 | -73.85579 | 1837 ft | 118 kts | 44° |
| 2026-05-07 15:27 | 41.64854 | -73.84773 | 2373 ft | 119 kts | 41° |
| 2026-05-07 15:28 | 41.65399 | -73.83952 | 2910 ft | 119 kts | 41° |
| 2026-05-07 15:28 | 41.65950 | -73.83133 | 3424 ft | 121 kts | 40° |
| 2026-05-07 15:28 | 41.66562 | -73.82412 | 3909 ft | 117 kts | 13° |
| 2026-05-07 15:28 | 41.67334 | -73.82307 | 4396 ft | 114 kts | 355° |
| 2026-05-07 15:29 | 41.68129 | -73.82250 | 4887 ft | 115 kts | 355° |
| 2026-05-07 15:29 | 41.68922 | -73.82217 | 5375 ft | 116 kts | 354° |
| 2026-05-07 15:29 | 41.69725 | -73.82189 | 5858 ft | 116 kts | 353° |
| 2026-05-07 15:29 | 41.70530 | -73.82170 | 6332 ft | 117 kts | 353° |
| 2026-05-07 15:30 | 41.71339 | -73.82153 | 6780 ft | 119 kts | 351° |
| 2026-05-07 15:30 | 41.72178 | -73.82134 | 7203 ft | 122 kts | 350° |
| 2026-05-07 15:30 | 41.73032 | -73.82114 | 7627 ft | 125 kts | 348° |
| 2026-05-07 15:30 | 41.73916 | -73.82100 | 8045 ft | 128 kts | 347° |
| 2026-05-07 15:31 | 41.74803 | -73.82081 | 8469 ft | 129 kts | 346° |
| 2026-05-07 15:31 | 41.75705 | -73.82067 | 8880 ft | 131 kts | 345° |
| 2026-05-07 15:31 | 41.76618 | -73.82051 | 9278 ft | 133 kts | 343° |
| 2026-05-07 15:31 | 41.77541 | -73.82037 | 9658 ft | 136 kts | 342° |
| 2026-05-07 15:32 | 41.78493 | -73.82021 | 10037 ft | 137 kts | 341° |
| 2026-05-07 15:32 | 41.79451 | -73.82007 | 10414 ft | 139 kts | 341° |
| 2026-05-07 15:32 | 41.80413 | -73.81995 | 10756 ft | 142 kts | 340° |
| 2026-05-07 15:32 | 41.81434 | -73.81986 | 10991 ft | 154 kts | 341° |
| 2026-05-07 15:33 | 41.82599 | -73.81996 | 11008 ft | 180 kts | 344° |
| 2026-05-07 15:33 | 41.83929 | -73.81966 | 10996 ft | 200 kts | 346° |
| 2026-05-07 15:33 | 41.85380 | -73.81931 | 10995 ft | 215 kts | 348° |
| 2026-05-07 15:33 | 41.86925 | -73.81898 | 10987 ft | 229 kts | 348° |
| 2026-05-07 15:34 | 41.88556 | -73.81859 | 10982 ft | 238 kts | 349° |
| 2026-05-07 15:34 | 41.90247 | -73.81826 | 10973 ft | 244 kts | 349° |
| 2026-05-07 15:34 | 41.91957 | -73.81792 | 10971 ft | 248 kts | 349° |
| 2026-05-07 15:34 | 41.93700 | -73.81763 | 10974 ft | 251 kts | 349° |
| 2026-05-07 15:35 | 41.95436 | -73.81730 | 10971 ft | 252 kts | 350° |
| 2026-05-07 15:35 | 41.97202 | -73.81701 | 10968 ft | 253 kts | 350° |
| 2026-05-07 15:35 | 41.98961 | -73.81666 | 10965 ft | 254 kts | 350° |
| 2026-05-07 15:35 | 42.00728 | -73.81634 | 10969 ft | 254 kts | 350° |
| 2026-05-07 15:36 | 42.02501 | -73.81602 | 10972 ft | 254 kts | 350° |
| 2026-05-07 15:36 | 42.04275 | -73.81574 | 10969 ft | 254 kts | 350° |
| 2026-05-07 15:36 | 42.06048 | -73.81541 | 10964 ft | 254 kts | 350° |
| 2026-05-07 15:36 | 42.07829 | -73.81510 | 10968 ft | 254 kts | 350° |
| 2026-05-07 15:37 | 42.09581 | -73.81477 | 10968 ft | 254 kts | 350° |
| 2026-05-07 15:37 | 42.11373 | -73.81446 | 10970 ft | 254 kts | 350° |
| 2026-05-07 15:37 | 42.13152 | -73.81418 | 10963 ft | 255 kts | 350° |
| 2026-05-07 15:37 | 42.14908 | -73.81385 | 10958 ft | 254 kts | 350° |
| 2026-05-07 15:38 | 42.16678 | -73.81352 | 10957 ft | 254 kts | 350° |
| 2026-05-07 15:38 | 42.18455 | -73.81322 | 10956 ft | 254 kts | 350° |
| 2026-05-07 15:38 | 42.20218 | -73.81289 | 10954 ft | 254 kts | 350° |
| 2026-05-07 15:38 | 42.21971 | -73.81259 | 10951 ft | 254 kts | 350° |
| 2026-05-07 15:39 | 42.23735 | -73.81229 | 10955 ft | 253 kts | 350° |
| 2026-05-07 15:39 | 42.25501 | -73.81195 | 10956 ft | 253 kts | 350° |
| 2026-05-07 15:39 | 42.27262 | -73.81168 | 10954 ft | 253 kts | 350° |
| 2026-05-07 15:39 | 42.29015 | -73.81136 | 10952 ft | 253 kts | 350° |
| 2026-05-07 15:40 | 42.30788 | -73.81105 | 10951 ft | 252 kts | 350° |
| 2026-05-07 15:40 | 42.32525 | -73.81075 | 10947 ft | 252 kts | 350° |
| 2026-05-07 15:40 | 42.34281 | -73.81041 | 10949 ft | 252 kts | 351° |
| 2026-05-07 15:40 | 42.36047 | -73.81014 | 10947 ft | 252 kts | 351° |
| 2026-05-07 15:41 | 42.37783 | -73.80981 | 10947 ft | 252 kts | 350° |
| 2026-05-07 15:41 | 42.39535 | -73.80949 | 10955 ft | 252 kts | 350° |
| 2026-05-07 15:41 | 42.41300 | -73.80917 | 10958 ft | 252 kts | 350° |
| 2026-05-07 15:41 | 42.43053 | -73.80888 | 10954 ft | 252 kts | 350° |
| 2026-05-07 15:42 | 42.44805 | -73.80856 | 10955 ft | 252 kts | 350° |
| 2026-05-07 15:42 | 42.46554 | -73.80824 | 10960 ft | 252 kts | 350° |
| 2026-05-07 15:42 | 42.48310 | -73.80791 | 10959 ft | 252 kts | 351° |
| 2026-05-07 15:42 | 42.50054 | -73.80762 | 10953 ft | 246 kts | 350° |
| 2026-05-07 15:43 | 42.51697 | -73.80720 | 10687 ft | 228 kts | 350° |
| 2026-05-07 15:43 | 42.53231 | -73.80691 | 10391 ft | 217 kts | 349° |
| 2026-05-07 15:43 | 42.54709 | -73.80666 | 10105 ft | 208 kts | 349° |
| 2026-05-07 15:43 | 42.56147 | -73.80643 | 9826 ft | 201 kts | 349° |
| 2026-05-07 15:44 | 42.57511 | -73.80627 | 9561 ft | 194 kts | 349° |
| 2026-05-07 15:44 | 42.58843 | -73.80604 | 9300 ft | 189 kts | 350° |
| 2026-05-07 15:44 | 42.60142 | -73.80582 | 9049 ft | 185 kts | 350° |
| 2026-05-07 15:44 | 42.61422 | -73.80562 | 8803 ft | 180 kts | 350° |
| 2026-05-07 15:45 | 42.62658 | -73.80539 | 8572 ft | 177 kts | 350° |
| 2026-05-07 15:45 | 42.63864 | -73.80519 | 8337 ft | 173 kts | 350° |
| 2026-05-07 15:45 | 42.65062 | -73.80498 | 8107 ft | 170 kts | 351° |
| 2026-05-07 15:45 | 42.66226 | -73.80477 | 7882 ft | 167 kts | 351° |
| 2026-05-07 15:46 | 42.68514 | -73.80436 | 7441 ft | 162 kts | 352° |
| 2026-05-07 15:46 | 42.69639 | -73.80415 | 7226 ft | 160 kts | 352° |
| 2026-05-07 15:46 | 42.70739 | -73.80396 | 7017 ft | 158 kts | 352° |
| 2026-05-07 15:47 | 42.71841 | -73.80379 | 6805 ft | 156 kts | 353° |
| 2026-05-07 15:47 | 42.72922 | -73.80360 | 6600 ft | 155 kts | 354° |
| 2026-05-07 15:47 | 42.73980 | -73.80339 | 6400 ft | 153 kts | 354° |
| 2026-05-07 15:47 | 42.75021 | -73.80215 | 6314 ft | 150 kts | 12° |
| 2026-05-07 15:48 | 42.75947 | -73.79636 | 6289 ft | 141 kts | 15° |
| 2026-05-07 15:48 | 42.76806 | -73.79089 | 6256 ft | 131 kts | 15° |
| 2026-05-07 15:48 | 42.77610 | -73.78562 | 6237 ft | 133 kts | 14° |
| 2026-05-07 15:48 | 42.78474 | -73.78002 | 6266 ft | 139 kts | 15° |
| 2026-05-07 15:49 | 42.79360 | -73.77409 | 6276 ft | 144 kts | 17° |
| 2026-05-07 15:49 | 42.80272 | -73.76788 | 6288 ft | 149 kts | 17° |
| 2026-05-07 15:49 | 42.81210 | -73.76153 | 6294 ft | 153 kts | 18° |
| 2026-05-07 15:49 | 42.82176 | -73.75496 | 6300 ft | 156 kts | 18° |
| 2026-05-07 15:50 | 42.83161 | -73.74824 | 6304 ft | 159 kts | 18° |
| 2026-05-07 15:50 | 42.84160 | -73.74147 | 6304 ft | 161 kts | 18° |
| 2026-05-07 15:50 | 42.85161 | -73.73465 | 6304 ft | 163 kts | 18° |
| 2026-05-07 15:50 | 42.86186 | -73.72768 | 6305 ft | 165 kts | 18° |
| 2026-05-07 15:51 | 42.87217 | -73.72065 | 6303 ft | 166 kts | 18° |
| 2026-05-07 15:51 | 42.88263 | -73.71354 | 6303 ft | 167 kts | 18° |
| 2026-05-07 15:51 | 42.89300 | -73.70643 | 6304 ft | 168 kts | 18° |
| 2026-05-07 15:51 | 42.90342 | -73.69936 | 6303 ft | 168 kts | 18° |
| 2026-05-07 15:52 | 42.91385 | -73.69224 | 6302 ft | 168 kts | 18° |
| 2026-05-07 15:52 | 42.92447 | -73.68500 | 6300 ft | 169 kts | 18° |
| 2026-05-07 15:52 | 42.93495 | -73.67783 | 6298 ft | 169 kts | 18° |
| 2026-05-07 15:52 | 42.94549 | -73.67068 | 6269 ft | 171 kts | 18° |
| 2026-05-07 15:53 | 42.95612 | -73.66338 | 6150 ft | 167 kts | 18° |
| 2026-05-07 15:53 | 42.96610 | -73.65655 | 5999 ft | 159 kts | 17° |
| 2026-05-07 15:53 | 42.97581 | -73.64992 | 5828 ft | 153 kts | 17° |
| 2026-05-07 15:53 | 42.98526 | -73.64349 | 5656 ft | 149 kts | 17° |
| 2026-05-07 15:54 | 42.99449 | -73.63718 | 5478 ft | 146 kts | 17° |
| 2026-05-07 15:54 | 43.00335 | -73.63116 | 5307 ft | 143 kts | 16° |
| 2026-05-07 15:54 | 43.01222 | -73.62509 | 5131 ft | 141 kts | 17° |
| 2026-05-07 15:54 | 43.02094 | -73.61913 | 4956 ft | 139 kts | 17° |
| 2026-05-07 15:55 | 43.02959 | -73.61324 | 4775 ft | 138 kts | 17° |
| 2026-05-07 15:55 | 43.03813 | -73.60738 | 4597 ft | 137 kts | 16° |
| 2026-05-07 15:55 | 43.04672 | -73.60149 | 4417 ft | 137 kts | 17° |
| 2026-05-07 15:55 | 43.05522 | -73.59570 | 4240 ft | 136 kts | 17° |
| 2026-05-07 15:56 | 43.06360 | -73.58995 | 4088 ft | 133 kts | 17° |
| 2026-05-07 15:56 | 43.07164 | -73.58439 | 3943 ft | 129 kts | 17° |
| 2026-05-07 15:56 | 43.07967 | -73.57890 | 3758 ft | 129 kts | 17° |
| 2026-05-07 15:56 | 43.08763 | -73.57342 | 3579 ft | 128 kts | 17° |
| 2026-05-07 15:57 | 43.09558 | -73.56801 | 3404 ft | 127 kts | 17° |
| 2026-05-07 15:57 | 43.10349 | -73.56257 | 3233 ft | 126 kts | 17° |
| 2026-05-07 15:57 | 43.11130 | -73.55723 | 3066 ft | 125 kts | 17° |
| 2026-05-07 15:57 | 43.11908 | -73.55245 | 2950 ft | 115 kts | 3° |
| 2026-05-07 15:58 | 43.12580 | -73.55438 | 2938 ft | 91 kts | 317° |
| 2026-05-07 15:58 | 43.13014 | -73.56004 | 2963 ft | 88 kts | 312° |
| 2026-05-07 15:58 | 43.13466 | -73.56630 | 2991 ft | 96 kts | 310° |
| 2026-05-07 15:58 | 43.13923 | -73.57327 | 2979 ft | 100 kts | 309° |
| 2026-05-07 15:59 | 43.14377 | -73.58042 | 2973 ft | 99 kts | 307° |
| 2026-05-07 15:59 | 43.14812 | -73.58760 | 2964 ft | 96 kts | 306° |
| 2026-05-07 15:59 | 43.15231 | -73.59460 | 2961 ft | 92 kts | 306° |
| 2026-05-07 15:59 | 43.15629 | -73.60129 | 2959 ft | 89 kts | 306° |
| 2026-05-07 16:00 | 43.16012 | -73.60777 | 2962 ft | 87 kts | 307° |
| 2026-05-07 16:00 | 43.16394 | -73.61422 | 2968 ft | 87 kts | 307° |
| 2026-05-07 16:00 | 43.16778 | -73.62073 | 2969 ft | 87 kts | 306° |
| 2026-05-07 16:00 | 43.17163 | -73.62727 | 2972 ft | 87 kts | 307° |
| 2026-05-07 16:01 | 43.17542 | -73.63377 | 2971 ft | 87 kts | 306° |
| 2026-05-07 16:01 | 43.17925 | -73.64029 | 2971 ft | 88 kts | 306° |
| 2026-05-07 16:01 | 43.18304 | -73.64679 | 2969 ft | 88 kts | 306° |
| 2026-05-07 16:01 | 43.18695 | -73.65343 | 2971 ft | 88 kts | 306° |
| 2026-05-07 16:02 | 43.19080 | -73.66003 | 2968 ft | 88 kts | 306° |
| 2026-05-07 16:02 | 43.19467 | -73.66657 | 2965 ft | 89 kts | 306° |
| 2026-05-07 16:02 | 43.19854 | -73.67325 | 2965 ft | 88 kts | 306° |
| 2026-05-07 16:02 | 43.20233 | -73.67973 | 2972 ft | 87 kts | 306° |
| 2026-05-07 16:03 | 43.20453 | -73.68728 | 2975 ft | 88 kts | 269° |
| 2026-05-07 16:03 | 43.20138 | -73.69474 | 2981 ft | 98 kts | 232° |
| 2026-05-07 16:03 | 43.19630 | -73.70119 | 2980 ft | 98 kts | 233° |
| 2026-05-07 16:03 | 43.19121 | -73.70748 | 2979 ft | 99 kts | 230° |
| 2026-05-07 16:04 | 43.18610 | -73.71345 | 3001 ft | 95 kts | 231° |
| 2026-05-07 16:04 | 43.18053 | -73.71999 | 3029 ft | 112 kts | 230° |
| 2026-05-07 16:04 | 43.17439 | -73.72678 | 2978 ft | 112 kts | 227° |
| 2026-05-07 16:04 | 43.16851 | -73.73321 | 2964 ft | 105 kts | 229° |
| 2026-05-07 16:05 | 43.16289 | -73.73937 | 2965 ft | 100 kts | 229° |
| 2026-05-07 16:05 | 43.15759 | -73.74517 | 2958 ft | 98 kts | 230° |
| 2026-05-07 16:05 | 43.15206 | -73.75129 | 2848 ft | 104 kts | 229° |
| 2026-05-07 16:05 | 43.14630 | -73.75761 | 2718 ft | 108 kts | 228° |
| 2026-05-07 16:06 | 43.14041 | -73.76410 | 2585 ft | 108 kts | 228° |
| 2026-05-07 16:06 | 43.13461 | -73.77033 | 2418 ft | 103 kts | 227° |
| 2026-05-07 16:06 | 43.12928 | -73.77615 | 2237 ft | 95 kts | 229° |
| 2026-05-07 16:06 | 43.12429 | -73.78177 | 2110 ft | 92 kts | 230° |
| 2026-05-07 16:07 | 43.11926 | -73.78737 | 1994 ft | 92 kts | 230° |
| 2026-05-07 16:07 | 43.11431 | -73.79279 | 1877 ft | 91 kts | 230° |
| 2026-05-07 16:07 | 43.10938 | -73.79817 | 1766 ft | 90 kts | 229° |
| 2026-05-07 16:07 | 43.10444 | -73.80352 | 1662 ft | 90 kts | 229° |
| 2026-05-07 16:08 | 43.09945 | -73.80895 | 1551 ft | 91 kts | 228° |
| 2026-05-07 16:08 | 43.09446 | -73.81435 | 1429 ft | 92 kts | 227° |
| 2026-05-07 16:08 | 43.08943 | -73.81980 | 1313 ft | 92 kts | 229° |
| 2026-05-07 16:08 | 43.08438 | -73.82523 | 1190 ft | 93 kts | 228° |
| 2026-05-07 16:09 | 43.07924 | -73.83066 | 1051 ft | 93 kts | 228° |
| 2026-05-07 16:09 | 43.07444 | -73.83636 | 930 ft | 92 kts | 226° |
| 2026-05-07 16:09 | 43.06927 | -73.84158 | 802 ft | 92 kts | 228° |
| 2026-05-07 16:09 | 43.06426 | -73.84718 | 679 ft | 91 kts | 226° |
| 2026-05-07 16:10 | 43.05917 | -73.85239 | 537 ft | 92 kts | 227° |
| 2026-05-07 16:10 | 43.05411 | -73.85784 | 434 ft | 89 kts | 225° |
| 2026-05-07 16:10 | 43.05026 | -73.86203 | 426 ft | 43 kts | 217° |
| 2026-05-07 16:10 | 43.04924 | -73.86331 | 426 ft | 1 kts | 231° |
| 2026-05-07 16:11 | 43.04955 | -73.86296 | 426 ft | 15 kts | 39° |
| 2026-05-07 16:11 | 43.05009 | -73.86228 | 426 ft | 9 kts | 43° |
| 2026-05-07 16:11 | 43.05014 | -73.86160 | 426 ft | 7 kts | 132° |
| 2026-05-07 16:11 | 43.04959 | -73.86108 | 426 ft | 16 kts | 178° |
| 2026-05-07 16:12 | 43.04868 | -73.86094 | 426 ft | 11 kts | 174° |
| 2026-05-07 16:12 | 43.04796 | -73.86093 | 426 ft | 6 kts | 205° |
| 2026-05-07 16:12 | 43.04734 | -73.86161 | 426 ft | 10 kts | 213° |
| 2026-05-07 16:12 | 43.04703 | -73.86129 | 426 ft | 8 kts | 84° |
| 2026-05-07 16:13 | 43.04679 | -73.86063 | 426 ft | 10 kts | 186° |
| 2026-05-07 16:13 | 43.04656 | -73.86090 | 426 ft | 0 kts | 248° |
| 2026-05-07 19:02 | 59.35140 | -2.89894 | 87 ft | 0 kts | 111° |
| 2026-05-07 19:23 | 59.35140 | -2.89893 | 87 ft | 0 kts | 111° |
| 2026-05-07 19:23 | 59.35131 | -2.89914 | 86 ft | 8 kts | 274° |
| 2026-05-07 19:23 | 59.35209 | -2.89913 | 86 ft | 17 kts | 30° |
| 2026-05-07 19:23 | 59.35283 | -2.89828 | 85 ft | 4 kts | 285° |
| 2026-05-07 19:24 | 59.35279 | -2.89838 | 86 ft | 0 kts | 211° |
| 2026-05-07 19:25 | 59.35236 | -2.89896 | 84 ft | 32 kts | 218° |
| 2026-05-07 19:25 | 59.34796 | -2.90380 | 165 ft | 95 kts | 215° |
| 2026-05-07 19:25 | 59.34419 | -2.91411 | 523 ft | 105 kts | 255° |
| 2026-05-07 19:26 | 59.34607 | -2.92862 | 659 ft | 125 kts | 314° |
| 2026-05-07 19:26 | 59.35325 | -2.93699 | 266 ft | 120 kts | 340° |
| 2026-05-07 19:26 | 59.36029 | -2.94005 | 221 ft | 89 kts | 9° |
| 2026-05-07 19:26 | 59.36314 | -2.93138 | 249 ft | 92 kts | 113° |
| 2026-05-07 19:27 | 59.35688 | -2.92398 | 390 ft | 114 kts | 166° |
| 2026-05-07 19:27 | 59.35124 | -2.93012 | 470 ft | 111 kts | 243° |
| 2026-05-07 19:27 | 59.35029 | -2.94515 | 44 ft | 113 kts | 265° |
| 2026-05-07 19:27 | 59.34973 | -2.95705 | 34 ft | 61 kts | 276° |
| 2026-05-07 19:28 | 59.35093 | -2.96097 | 49 ft | 15 kts | 25° |
| 2026-05-07 19:28 | 59.35112 | -2.96058 | 49 ft | 1 kts | 60° |